Time;durP1;ratioP1;P1;durP2;ratioP2;P2;SDS_P1;SDS_P2;PMS_P1;PMS_P2;Temp;Humidity;BMP_temperature;BMP_pressure;BME280_temperature;BME280_humidity;BME280_pressure;Samples;Min_cycle;Max_cycle;Signal;HPM_P1;HPM_P2
2023/10/09 00:02:10;;;;;;;7.97;3.40;;;11.50;99.90;;;;;;5034995;28;20169;-72
2023/10/09 00:04:41;;;;;;;6.30;4.20;;;11.50;99.90;;;;;;5031853;28;20262;-65
2023/10/09 00:07:10;;;;;;;6.67;4.40;;;11.50;99.90;;;;;;5031932;28;20386;-65
2023/10/09 00:09:46;;;;;;;7.90;3.20;;;11.50;99.90;;;;;;5038868;28;20196;-69
2023/10/09 00:12:22;;;;;;;6.50;3.50;;;11.50;99.90;;;;;;5035774;28;20693;-67
2023/10/09 00:14:55;;;;;;;4.17;3.17;;;11.50;1.00;;;;;;5030460;28;20200;-64
2023/10/09 00:17:23;;;;;;;6.37;3.33;;;11.50;1.00;;;;;;5029639;28;20604;-64
2023/10/09 00:19:51;;;;;;;4.57;2.73;;;11.40;1.00;;;;;;5019219;28;20568;-65
2023/10/09 00:22:26;;;;;;;3.70;2.83;;;11.40;1.00;;;;;;5029221;28;20656;-64
2023/10/09 00:25:10;;;;;;;6.33;3.57;;;11.40;1.00;;;;;;5022662;28;20744;-64
2023/10/09 00:27:43;;;;;;;5.20;3.33;;;11.40;1.00;;;;;;5029836;28;20200;-65
2023/10/09 00:30:18;;;;;;;6.90;3.37;;;11.50;1.00;;;;;;5030981;28;20191;-64
2023/10/09 00:33:06;;;;;;;7.67;3.10;;;11.50;1.00;;;;;;5027893;28;20211;-64
2023/10/09 00:35:54;;;;;;;4.47;3.00;;;11.60;1.00;;;;;;5030005;28;20214;-64
2023/10/09 00:40:57;;;;;;;5.73;3.07;;;11.80;99.90;;;;;;5029130;28;20273;-71
2023/10/09 00:43:28;;;;;;;9.60;3.67;;;11.80;99.90;;;;;;5029076;28;20260;-71
2023/10/09 00:49:02;;;;;;;8.97;3.60;;;11.90;99.90;;;;;;5005417;28;20279;-72
2023/10/09 00:51:38;;;;;;;6.33;3.27;;;11.90;99.90;;;;;;5017087;28;20228;-72
2023/10/09 00:54:08;;;;;;;8.70;3.40;;;11.80;99.90;;;;;;5031108;28;20509;-71
2023/10/09 00:56:39;;;;;;;4.80;3.00;;;11.90;99.90;;;;;;5029592;28;20270;-71
2023/10/09 00:59:20;;;;;;;5.57;3.47;;;11.80;99.90;;;;;;5025808;28;20675;-71
2023/10/09 01:01:56;;;;;;;14.80;4.43;;;11.80;99.90;;;;;;5031214;28;20192;-71
2023/10/09 01:04:28;;;;;;;12.50;6.17;;;11.80;1.00;;;;;;5027840;28;20446;-69
2023/10/09 01:07:09;;;;;;;20.07;11.07;;;12.00;1.00;;;;;;5028774;28;20208;-67
2023/10/09 01:09:38;;;;;;;19.60;8.97;;;12.20;1.00;;;;;;5028588;28;20220;-68
2023/10/09 01:12:05;;;;;;;19.47;7.53;;;12.50;1.00;;;;;;5026940;28;20221;-72
2023/10/09 01:14:36;;;;;;;14.37;8.37;;;12.60;1.00;;;;;;5030361;28;20206;-70
2023/10/09 01:17:08;;;;;;;16.13;7.03;;;12.70;1.00;;;;;;5024326;28;20616;-72
2023/10/09 01:19:37;;;;;;;13.90;6.00;;;12.70;1.00;;;;;;5025126;28;20211;-72
2023/10/09 01:22:12;;;;;;;15.77;5.20;;;12.70;1.00;;;;;;5029291;28;20202;-69
2023/10/09 01:24:40;;;;;;;12.73;6.20;;;12.70;1.00;;;;;;5027521;28;20305;-69
2023/10/09 01:27:14;;;;;;;13.50;4.57;;;12.80;1.00;;;;;;5029831;28;20292;-71
2023/10/09 01:29:43;;;;;;;14.97;6.40;;;12.90;1.00;;;;;;5023903;28;20544;-69
2023/10/09 01:32:16;;;;;;;12.00;6.43;;;13.10;1.00;;;;;;5029312;28;20287;-69
2023/10/09 01:37:18;;;;;;;19.67;9.73;;;13.50;1.00;;;;;;5028724;28;20222;-64
2023/10/09 01:39:51;;;;;;;15.03;8.23;;;13.70;1.00;;;;;;5029887;28;20192;-64
2023/10/09 01:42:34;;;;;;;17.10;9.90;;;13.90;1.00;;;;;;5031113;28;20271;-67
2023/10/09 01:45:11;;;;;;;19.33;10.75;;;14.00;1.00;;;;;;5029583;28;20192;-66
2023/10/09 01:47:38;;;;;;;21.05;10.25;;;14.10;1.00;;;;;;5029638;28;20272;-65
2023/10/09 01:50:19;;;;;;;23.50;10.05;;;14.20;1.00;;;;;;5031477;28;20287;-74
2023/10/09 01:52:46;;;;;;;15.38;8.30;;;14.30;1.00;;;;;;5028829;28;20204;-71
2023/10/09 01:55:29;;;;;;;13.20;7.05;;;14.40;1.00;;;;;;5027539;28;20188;-73
2023/10/09 01:58:05;;;;;;;17.67;7.80;;;14.20;1.00;;;;;;5033594;28;20231;-69
2023/10/09 02:04:31;;;;;;;32.00;7.68;;;14.10;1.00;;;;;;5027941;28;20663;-69
2023/10/09 02:06:59;;;;;;;23.30;10.32;;;14.20;1.00;;;;;;5023503;28;20216;-69
2023/10/09 02:09:31;;;;;;;17.17;9.32;;;14.30;1.00;;;;;;5028480;28;20645;-69
2023/10/09 02:11:58;;;;;;;14.90;8.20;;;14.50;1.00;;;;;;5017943;28;20253;-69
2023/10/09 02:14:25;;;;;;;17.08;7.57;;;14.50;1.00;;;;;;5030043;28;20192;-69
2023/10/09 02:19:40;;;;;;;16.48;9.60;;;14.50;1.00;;;;;;5029285;28;20200;-69
2023/10/09 02:22:13;;;;;;;22.05;8.13;;;14.50;1.00;;;;;;5028303;28;20197;-70
2023/10/09 02:24:49;;;;;;;14.13;8.35;;;14.50;1.00;;;;;;5027849;28;20196;-70
2023/10/09 02:30:19;;;;;;;20.05;7.78;;;14.50;1.00;;;;;;5019466;28;20255;-71
2023/10/09 02:32:52;;;;;;;18.42;8.13;;;14.50;1.00;;;;;;5023401;28;20279;-70
2023/10/09 02:35:28;;;;;;;14.20;8.35;;;14.40;1.00;;;;;;5029047;28;20207;-69
2023/10/09 02:37:58;;;;;;;25.13;8.95;;;14.50;1.00;;;;;;5030536;28;20216;-70
2023/10/09 02:40:33;;;;;;;16.45;8.02;;;14.50;1.00;;;;;;5028781;28;20192;-69
2023/10/09 02:43:00;;;;;;;14.70;8.38;;;14.70;1.00;;;;;;5027310;28;20676;-71
2023/10/09 02:45:36;;;;;;;17.02;8.48;;;14.80;1.00;;;;;;5033361;28;20200;-70
2023/10/09 02:48:10;;;;;;;21.08;8.02;;;14.80;1.00;;;;;;5031996;28;20187;-69
2023/10/09 02:50:38;;;;;;;16.15;7.75;;;14.80;1.00;;;;;;5014533;28;20559;-67
2023/10/09 02:53:10;;;;;;;17.92;9.50;;;14.90;1.00;;;;;;5034563;28;20787;-65
2023/10/09 02:55:38;;;;;;;19.27;8.85;;;15.00;1.00;;;;;;5031321;28;20204;-66
2023/10/09 02:58:07;;;;;;;14.63;8.00;;;15.10;1.00;;;;;;5033270;28;20204;-65
2023/10/09 03:00:36;;;;;;;17.33;8.27;;;15.00;1.00;;;;;;5023021;28;20203;-64
2023/10/09 03:03:07;;;;;;;22.73;8.13;;;15.00;1.00;;;;;;5023134;28;20243;-65
2023/10/09 03:05:38;;;;;;;13.90;7.28;;;15.10;1.00;;;;;;5027727;28;20192;-64
2023/10/09 03:08:05;;;;;;;18.60;8.63;;;15.20;1.00;;;;;;5032338;28;20220;-66
2023/10/09 03:10:34;;;;;;;17.63;7.63;;;15.30;1.00;;;;;;5029450;28;20198;-66
2023/10/09 03:13:03;;;;;;;21.45;8.40;;;15.30;1.00;;;;;;5028664;28;20564;-65
2023/10/09 03:15:35;;;;;;;13.55;7.97;;;15.40;1.00;;;;;;5029018;28;20203;-65
2023/10/09 03:18:04;;;;;;;14.82;7.55;;;15.50;1.00;;;;;;5030699;28;20236;-66
2023/10/09 03:20:32;;;;;;;14.40;8.48;;;15.50;99.90;;;;;;5021900;28;20188;-67
2023/10/09 03:23:01;;;;;;;17.63;7.32;;;15.60;99.90;;;;;;5021109;28;20688;-65
2023/10/09 03:25:29;;;;;;;17.63;8.77;;;15.60;99.90;;;;;;5026825;28;20197;-65
2023/10/09 03:27:58;;;;;;;15.90;8.35;;;15.60;99.90;;;;;;5030881;28;20261;-65
2023/10/09 03:30:26;;;;;;;16.75;8.55;;;15.50;1.00;;;;;;5027958;28;20201;-63
2023/10/09 03:32:53;;;;;;;16.48;8.88;;;15.60;99.90;;;;;;5026485;28;20286;-62
2023/10/09 03:35:25;;;;;;;12.13;8.00;;;15.60;99.90;;;;;;5028186;28;20191;-70
2023/10/09 03:38:20;;;;;;;19.52;8.57;;;15.60;99.90;;;;;;5028386;28;20216;-70
2023/10/09 03:40:47;;;;;;;17.45;7.82;;;15.70;99.90;;;;;;5031521;28;20609;-68
2023/10/09 03:43:16;;;;;;;17.25;8.35;;;15.60;99.90;;;;;;5026481;28;20184;-71
2023/10/09 03:45:52;;;;;;;15.05;8.70;;;15.60;99.90;;;;;;5029147;28;20262;-70
2023/10/09 03:48:26;;;;;;;13.90;7.35;;;15.60;99.90;;;;;;5031746;28;20554;-70
2023/10/09 03:51:08;;;;;;;13.07;7.97;;;15.60;99.90;;;;;;5027667;28;20287;-73
2023/10/09 03:53:36;;;;;;;20.05;7.95;;;15.60;99.90;;;;;;5026431;28;20641;-70
2023/10/09 03:56:11;;;;;;;18.88;8.10;;;15.60;99.90;;;;;;5029597;28;20219;-73
2023/10/09 03:58:39;;;;;;;13.88;7.80;;;15.70;99.90;;;;;;5026795;28;20539;-67
2023/10/09 04:01:16;;;;;;;18.00;7.13;;;15.60;99.90;;;;;;5016703;28;20677;-67
2023/10/09 04:03:44;;;;;;;14.57;7.95;;;15.60;99.90;;;;;;5029655;28;20556;-68
2023/10/09 04:06:12;;;;;;;14.77;7.53;;;15.60;99.90;;;;;;5026945;28;20239;-67
2023/10/09 04:08:49;;;;;;;14.90;7.90;;;15.60;99.90;;;;;;5026068;28;20794;-66
2023/10/09 04:11:16;;;;;;;18.88;8.52;;;15.80;99.90;;;;;;5022072;28;20196;-66
2023/10/09 04:13:46;;;;;;;16.92;8.77;;;15.80;99.90;;;;;;5020870;28;20208;-66
2023/10/09 04:16:28;;;;;;;15.55;8.32;;;15.80;99.90;;;;;;5022659;28;20180;-66
2023/10/09 04:18:59;;;;;;;22.40;8.43;;;15.90;99.90;;;;;;5025197;28;20208;-66
2023/10/09 04:21:36;;;;;;;14.88;8.25;;;15.90;99.90;;;;;;5017543;28;20207;-66
2023/10/09 04:26:45;;;;;;;16.80;7.75;;;15.90;99.90;;;;;;5035980;28;20630;-66
2023/10/09 04:29:26;;;;;;;13.77;8.45;;;15.90;99.90;;;;;;5033053;28;20196;-64
2023/10/09 04:31:59;;;;;;;13.75;7.68;;;15.90;99.90;;;;;;5012384;28;20200;-64
2023/10/09 04:34:37;;;;;;;17.98;7.50;;;16.00;99.90;;;;;;5021131;28;20212;-65
2023/10/09 04:39:47;;;;;;;13.35;7.07;;;15.90;99.90;;;;;;5031049;28;20192;-66
2023/10/09 04:42:58;;;;;;;15.90;7.97;;;15.80;99.90;;;;;;5027306;28;20184;-67
2023/10/09 04:47:38;;;;;;;18.35;6.95;;;15.80;99.90;;;;;;5027602;28;20226;-70
2023/10/09 04:50:11;;;;;;;11.90;6.18;;;15.90;99.90;;;;;;5028329;28;20262;-71
2023/10/09 05:02:57;;;;;;;13.23;7.30;;;15.80;99.90;;;;;;5030967;28;20200;-71
2023/10/09 05:08:21;;;;;;;12.60;6.95;;;15.80;99.90;;;;;;5031588;28;20692;-72
2023/10/09 05:13:57;;;;;;;15.20;7.32;;;16.00;99.90;;;;;;5030485;28;20711;-71
2023/10/09 05:16:26;;;;;;;9.60;5.70;;;16.00;99.90;;;;;;5031562;28;20192;-69
2023/10/09 05:19:06;;;;;;;11.68;6.53;;;16.10;99.90;;;;;;5030846;28;20184;-70
2023/10/09 05:24:43;;;;;;;12.90;6.15;;;15.90;99.90;;;;;;5030081;28;20199;-72
2023/10/09 05:27:17;;;;;;;14.73;6.07;;;15.90;99.90;;;;;;5039060;28;20210;-72
2023/10/09 05:32:48;;;;;;;13.85;6.63;;;15.90;99.90;;;;;;5012872;28;20268;-74
2023/10/09 05:35:15;;;;;;;12.27;6.32;;;15.90;99.90;;;;;;5027618;28;20184;-82
2023/10/09 05:37:45;;;;;;;13.52;6.15;;;15.90;99.90;;;;;;5030337;28;20216;-72
2023/10/09 05:42:45;;;;;;;12.10;6.75;;;15.90;99.90;;;;;;5026268;28;20257;-69
2023/10/09 06:03:26;;;;;;;10.93;5.93;;;16.00;99.90;;;;;;5017660;28;20505;-71
2023/10/09 06:08:47;;;;;;;16.20;8.35;;;16.10;99.90;;;;;;5028327;28;20228;-68
2023/10/09 06:16:41;;;;;;;19.48;10.45;;;16.40;99.90;;;;;;5028482;28;20187;-70
2023/10/09 06:19:26;;;;;;;20.80;11.02;;;16.50;99.90;;;;;;5028471;28;20267;-70
2023/10/09 06:24:41;;;;;;;19.85;10.75;;;16.50;99.90;;;;;;5030788;28;20807;-70
2023/10/09 06:27:12;;;;;;;15.82;7.15;;;16.50;99.90;;;;;;5029827;28;20200;-69
2023/10/09 06:32:34;;;;;;;11.63;6.47;;;16.40;99.90;;;;;;5045743;28;20184;-72
2023/10/09 06:35:15;;;;;;;12.57;5.85;;;16.50;99.90;;;;;;5027763;28;20227;-66
2023/10/09 06:51:12;;;;;;;24.27;8.20;;;16.70;99.90;;;;;;5040255;28;20210;-64
2023/10/09 06:59:04;;;;;;;13.07;6.03;;;16.50;99.90;;;;;;5030688;28;20569;-65
2023/10/09 07:01:44;;;;;;;13.77;6.00;;;16.50;99.90;;;;;;5028022;28;20274;-69
2023/10/09 07:05:10;;;;;;;8.65;5.82;;;16.50;99.90;;;;;;5028748;28;20190;-64
2023/10/09 07:07:07;;;;;;;8.55;5.40;;;16.40;99.90;;;;;;5022017;28;20243;-64
2023/10/09 07:09:43;;;;;;;10.30;5.90;;;16.30;99.90;;;;;;5028770;28;20337;-64
2023/10/09 07:12:20;;;;;;;12.38;6.35;;;16.30;99.90;;;;;;5043656;28;20290;-66
2023/10/09 07:22:23;;;;;;;12.70;5.85;;;16.60;99.90;;;;;;5031926;28;20204;-66
2023/10/09 07:24:57;;;;;;;11.25;5.60;;;16.70;99.90;;;;;;5037232;28;20191;-66
2023/10/09 07:27:48;;;;;;;11.93;5.80;;;16.80;99.90;;;;;;5034425;28;20647;-65
2023/10/09 07:35:57;;;;;;;13.23;5.50;;;16.70;99.90;;;;;;5043098;28;20191;-65
2023/10/09 07:38:35;;;;;;;13.05;6.03;;;16.70;99.90;;;;;;5036182;28;20300;-65
2023/10/09 07:43:39;;;;;;;9.13;5.03;;;16.80;99.90;;;;;;5021887;28;20311;-65
2023/10/09 07:48:56;;;;;;;14.20;6.07;;;17.00;99.90;;;;;;5036432;28;20510;-65
2023/10/09 07:51:30;;;;;;;12.70;5.65;;;17.20;99.90;;;;;;5028528;28;20188;-65
2023/10/09 07:54:08;;;;;;;13.10;6.28;;;17.20;99.90;;;;;;5032436;28;20199;-65
2023/10/09 07:56:46;;;;;;;13.65;6.10;;;17.10;99.90;;;;;;5024371;28;20559;-64
2023/10/09 07:59:17;;;;;;;7.80;5.15;;;17.00;99.90;;;;;;5014632;28;20696;-72
2023/10/09 08:01:53;;;;;;;11.35;5.47;;;17.00;99.90;;;;;;5031160;28;20219;-69
2023/10/09 08:04:37;;;;;;;13.35;5.57;;;17.00;99.90;;;;;;5046962;28;20211;-71
2023/10/09 08:07:09;;;;;;;8.63;5.25;;;17.00;99.90;;;;;;5028730;28;20302;-71
2023/10/09 08:13:20;;;;;;;9.38;4.88;;;17.00;99.90;;;;;;5027845;28;20196;-71
2023/10/09 08:15:53;;;;;;;11.25;5.35;;;17.00;99.90;;;;;;5023250;28;20188;-72
2023/10/09 08:18:29;;;;;;;10.93;5.95;;;17.00;99.90;;;;;;5021105;28;20224;-72
2023/10/09 08:23:28;;;;;;;9.13;6.13;;;16.90;99.90;;;;;;5030921;28;20253;-71
2023/10/09 08:26:13;;;;;;;12.30;5.50;;;16.90;99.90;;;;;;5030215;28;20204;-72
2023/10/09 08:28:45;;;;;;;14.10;5.90;;;16.90;99.90;;;;;;5008555;28;20254;-77
2023/10/09 08:31:34;;;;;;;10.13;5.43;;;16.90;99.90;;;;;;5029814;28;20196;-71
2023/10/09 08:34:01;;;;;;;9.55;5.78;;;17.00;99.90;;;;;;5028914;28;20200;-71
2023/10/09 08:36:37;;;;;;;10.82;5.68;;;16.90;99.90;;;;;;5013066;28;20676;-77
2023/10/09 08:39:17;;;;;;;11.50;6.03;;;17.10;99.90;;;;;;5030879;28;20216;-72
2023/10/09 08:41:44;;;;;;;12.20;6.53;;;17.20;99.90;;;;;;5022745;28;20196;-76
2023/10/09 08:44:14;;;;;;;23.45;9.25;;;17.40;99.90;;;;;;5032635;28;20191;-70
2023/10/09 08:46:42;;;;;;;19.05;8.07;;;17.60;99.90;;;;;;5030687;28;20204;-71
2023/10/09 08:49:10;;;;;;;18.45;7.68;;;17.60;99.90;;;;;;5029898;28;20544;-72
2023/10/09 08:51:38;;;;;;;15.02;7.45;;;17.50;99.90;;;;;;5029872;28;20204;-71
2023/10/09 08:54:11;;;;;;;10.90;6.30;;;17.60;99.90;;;;;;5031941;28;20730;-71
2023/10/09 08:56:49;;;;;;;12.65;6.63;;;17.60;99.90;;;;;;5023104;28;20324;-73
2023/10/09 08:59:18;;;;;;;15.50;8.35;;;17.60;99.90;;;;;;5011526;28;20204;-70
2023/10/09 09:01:49;;;;;;;16.42;8.68;;;17.70;99.90;;;;;;5028820;28;20203;-71
2023/10/09 09:04:39;;;;;;;16.40;7.22;;;17.80;99.90;;;;;;5031855;28;20184;-71
2023/10/09 09:07:31;;;;;;;11.93;7.85;;;17.80;99.90;;;;;;5030579;28;20244;-71
2023/10/09 09:10:17;;;;;;;14.30;6.65;;;17.80;99.90;;;;;;5031375;28;20674;-71
2023/10/09 09:12:44;;;;;;;12.10;6.35;;;17.70;99.90;;;;;;5009242;28;20668;-72
2023/10/09 09:15:19;;;;;;;10.80;6.15;;;17.60;99.90;;;;;;5029710;28;20398;-71
2023/10/09 09:17:49;;;;;;;15.30;6.55;;;17.40;99.90;;;;;;5029710;28;20821;-71
2023/10/09 09:20:23;;;;;;;19.90;7.20;;;17.40;99.90;;;;;;5030862;28;20189;-71
2023/10/09 09:22:56;;;;;;;14.25;7.40;;;17.50;99.90;;;;;;5018900;28;20279;-71
2023/10/09 09:25:25;;;;;;;13.18;6.50;;;17.50;99.90;;;;;;5030164;28;20184;-71
2023/10/09 09:27:55;;;;;;;12.73;7.32;;;17.50;99.90;;;;;;5026943;28;20223;-71
2023/10/09 09:30:33;;;;;;;15.05;6.43;;;17.60;99.90;;;;;;5019372;28;20285;-71
2023/10/09 09:33:43;;;;;;;11.63;6.60;;;17.60;99.90;;;;;;5028275;28;20628;-71
2023/10/09 09:36:11;;;;;;;14.55;6.85;;;17.60;99.90;;;;;;5028708;28;20565;-71
2023/10/09 09:38:47;;;;;;;13.10;7.75;;;17.80;99.90;;;;;;5028699;28;20621;-72
2023/10/09 09:41:25;;;;;;;10.82;6.43;;;18.00;99.90;;;;;;5029120;28;20220;-71
2023/10/09 09:44:01;;;;;;;12.02;6.85;;;18.20;99.90;;;;;;5026866;28;20703;-73
2023/10/09 09:46:35;;;;;;;11.82;6.85;;;18.20;99.90;;;;;;5027609;28;20629;-65
2023/10/09 09:49:16;;;;;;;16.50;7.32;;;18.40;99.90;;;;;;5005889;28;20214;-66
2023/10/09 09:51:46;;;;;;;13.10;6.75;;;18.50;99.90;;;;;;5029044;28;20223;-65
2023/10/09 09:54:16;;;;;;;14.80;6.28;;;18.60;99.90;;;;;;5028896;28;20277;-65
2023/10/09 09:56:57;;;;;;;16.48;6.25;;;18.80;99.90;;;;;;5018799;28;20204;-71
2023/10/09 09:59:29;;;;;;;15.32;6.75;;;19.00;99.90;;;;;;5031934;28;20602;-72
2023/10/09 10:02:06;;;;;;;14.77;6.55;;;19.00;99.90;;;;;;5029734;28;20250;-71
2023/10/09 10:04:36;;;;;;;12.90;6.45;;;19.30;99.90;;;;;;5029293;28;20196;-73
2023/10/09 10:07:09;;;;;;;13.38;7.35;;;19.20;99.90;;;;;;5027749;28;20223;-71
2023/10/09 10:09:41;;;;;;;12.50;7.30;;;19.50;99.90;;;;;;5029919;28;20196;-70
2023/10/09 10:12:11;;;;;;;12.15;6.95;;;19.60;99.90;;;;;;5047688;28;20623;-72
2023/10/09 10:14:58;;;;;;;13.10;7.60;;;19.50;99.90;;;;;;5027358;28;20200;-72
2023/10/09 10:17:29;;;;;;;14.05;7.25;;;19.50;99.90;;;;;;5009705;28;20200;-71
2023/10/09 10:20:42;;;;;;;12.07;7.60;;;19.50;99.90;;;;;;5027266;28;20303;-71
2023/10/09 10:23:25;;;;;;;16.15;8.05;;;19.40;99.90;;;;;;5015955;28;20641;-72
2023/10/09 10:25:59;;;;;;;19.73;9.73;;;19.50;99.90;;;;;;5036213;28;20188;-72
2023/10/09 10:28:42;;;;;;;17.27;10.20;;;19.50;99.90;;;;;;5025410;28;20192;-72
2023/10/09 10:31:13;;;;;;;14.20;7.78;;;19.50;99.90;;;;;;5029179;28;20265;-71
2023/10/09 10:33:55;;;;;;;17.55;8.18;;;19.40;99.90;;;;;;5004205;28;20200;-69
2023/10/09 10:36:23;;;;;;;16.85;9.40;;;19.50;99.90;;;;;;5031729;28;20223;-72
2023/10/09 10:39:04;;;;;;;14.60;6.82;;;19.60;99.90;;;;;;5029674;28;20208;-72
2023/10/09 10:41:36;;;;;;;16.58;8.85;;;19.60;99.90;;;;;;5011509;28;20545;-71
2023/10/09 10:46:52;;;;;;;15.50;7.32;;;19.70;99.90;;;;;;5029639;28;20188;-72
2023/10/09 10:49:23;;;;;;;13.30;8.13;;;19.80;99.90;;;;;;5028476;28;20223;-72
2023/10/09 10:52:01;;;;;;;14.48;8.13;;;20.00;99.90;;;;;;5027368;28;20196;-72
2023/10/09 10:56:59;;;;;;;12.80;8.02;;;20.10;99.90;;;;;;5032180;28;20643;-64
2023/10/09 10:59:41;;;;;;;12.90;7.10;;;20.20;99.90;;;;;;5031182;28;20229;-66
2023/10/09 11:04:44;;;;;;;13.63;7.30;;;20.30;99.90;;;;;;5031895;28;20220;-66
2023/10/09 11:07:14;;;;;;;12.77;7.75;;;20.30;99.90;;;;;;5031582;28;20244;-66
2023/10/09 11:12:44;;;;;;;9.80;6.93;;;20.40;99.90;;;;;;5030475;28;20648;-65
2023/10/09 11:18:16;;;;;;;14.07;7.28;;;20.10;99.90;;;;;;5031020;28;20855;-66
2023/10/09 11:23:38;;;;;;;13.27;6.57;;;20.20;99.90;;;;;;5031988;28;20287;-64
2023/10/09 11:26:25;;;;;;;13.90;6.93;;;20.50;99.90;;;;;;5031243;28;20188;-64
2023/10/09 11:29:23;;;;;;;12.00;6.80;;;20.70;99.90;;;;;;5030174;28;20609;-65
2023/10/09 11:32:07;;;;;;;11.07;5.90;;;20.80;99.90;;;;;;5029019;28;20275;-64
2023/10/09 11:34:36;;;;;;;13.52;6.80;;;20.50;99.90;;;;;;5020900;28;20624;-65
2023/10/09 11:37:10;;;;;;;15.60;7.13;;;20.30;99.90;;;;;;5031408;28;20719;-69
2023/10/09 11:39:50;;;;;;;12.45;6.53;;;20.20;99.90;;;;;;5031948;28;20212;-65
2023/10/09 11:42:37;;;;;;;9.38;6.13;;;20.20;99.90;;;;;;5029338;28;20200;-67
2023/10/09 11:45:19;;;;;;;9.75;6.22;;;20.20;99.90;;;;;;5028929;28;20287;-67
2023/10/09 11:47:58;;;;;;;10.85;6.15;;;20.10;99.90;;;;;;5031597;28;20202;-69
2023/10/09 11:53:43;;;;;;;13.35;6.50;;;20.00;99.90;;;;;;4989642;28;20224;-71
2023/10/09 11:56:14;;;;;;;12.05;6.28;;;20.00;99.90;;;;;;5028807;28;20242;-68
2023/10/09 11:58:41;;;;;;;10.80;6.30;;;20.20;99.90;;;;;;5029014;28;20243;-67
2023/10/09 12:01:20;;;;;;;13.40;6.72;;;20.20;99.90;;;;;;5030703;28;20227;-66
2023/10/09 12:03:50;;;;;;;11.05;6.38;;;20.40;99.90;;;;;;5029094;28;20215;-81
2023/10/09 12:06:22;;;;;;;10.05;5.53;;;20.40;99.90;;;;;;5029042;28;20223;-73
2023/10/09 12:08:50;;;;;;;10.75;6.07;;;20.60;99.90;;;;;;5029053;28;20236;-70
2023/10/09 12:11:39;;;;;;;11.80;5.85;;;20.70;99.90;;;;;;5030642;28;20718;-71
2023/10/09 12:14:23;;;;;;;8.52;6.03;;;20.60;99.90;;;;;;5026870;28;20274;-72
2023/10/09 12:16:51;;;;;;;13.35;6.57;;;20.20;99.90;;;;;;5036015;28;20254;-67
2023/10/09 12:19:18;;;;;;;11.23;5.65;;;20.40;99.90;;;;;;5023895;28;20223;-66
2023/10/09 12:21:45;;;;;;;12.65;5.85;;;20.50;99.90;;;;;;5018904;28;20254;-65
2023/10/09 12:24:12;;;;;;;12.32;5.80;;;20.50;99.90;;;;;;5029464;28;20640;-66
2023/10/09 12:26:40;;;;;;;12.52;6.20;;;20.70;99.90;;;;;;5029709;28;20657;-68
2023/10/09 12:29:10;;;;;;;10.38;5.50;;;20.70;99.90;;;;;;5029016;28;20426;-68
2023/10/09 12:31:38;;;;;;;9.23;5.97;;;20.60;99.90;;;;;;5028399;28;20198;-67
2023/10/09 12:34:05;;;;;;;10.57;6.13;;;20.70;99.90;;;;;;5028250;28;20790;-67
2023/10/09 12:36:37;;;;;;;8.82;5.55;;;20.90;99.90;;;;;;5029736;28;20568;-67
2023/10/09 12:39:05;;;;;;;9.30;5.15;;;21.00;99.90;;;;;;5029607;28;20274;-72
2023/10/09 12:41:35;;;;;;;10.52;5.88;;;21.10;99.90;;;;;;5028621;28;20192;-67
2023/10/09 12:44:02;;;;;;;15.10;6.75;;;21.10;99.90;;;;;;5028884;28;20283;-66
2023/10/09 12:46:37;;;;;;;10.90;5.50;;;20.90;99.90;;;;;;5028591;28;20208;-66
2023/10/09 12:49:05;;;;;;;11.48;5.30;;;20.80;99.90;;;;;;5029039;28;20199;-67
2023/10/09 12:51:32;;;;;;;12.15;6.00;;;20.70;99.90;;;;;;5031142;28;20193;-65
2023/10/09 12:54:01;;;;;;;12.23;6.05;;;20.50;99.90;;;;;;5029803;28;20212;-68
2023/10/09 12:56:37;;;;;;;13.02;5.68;;;20.40;99.90;;;;;;5028076;28;20188;-75
2023/10/09 12:59:06;;;;;;;11.05;5.50;;;20.20;99.90;;;;;;5026991;28;20200;-73
2023/10/09 13:01:42;;;;;;;7.75;4.50;;;20.30;99.90;;;;;;5027110;28;20226;-70
2023/10/09 13:04:15;;;;;;;11.23;6.40;;;20.50;99.90;;;;;;5021765;28;20706;-66
2023/10/09 13:06:46;;;;;;;9.88;5.47;;;20.80;99.90;;;;;;5029130;28;20215;-68
2023/10/09 13:09:15;;;;;;;12.18;5.60;;;21.10;99.90;;;;;;5028479;28;20623;-70
2023/10/09 13:11:43;;;;;;;9.80;6.07;;;21.30;99.90;;;;;;5031522;28;20201;-70
2023/10/09 13:14:17;;;;;;;9.48;5.50;;;21.40;99.90;;;;;;5027214;28;20883;-70
2023/10/09 13:16:45;;;;;;;8.75;5.22;;;21.20;99.90;;;;;;5004570;28;20196;-67
2023/10/09 13:19:12;;;;;;;9.20;4.85;;;20.80;99.90;;;;;;5028805;28;20200;-66
2023/10/09 13:21:40;;;;;;;12.05;5.70;;;20.40;99.90;;;;;;5027631;28;20201;-66
2023/10/09 13:24:15;;;;;;;12.82;7.63;;;20.30;99.90;;;;;;5027325;28;20220;-65
2023/10/09 13:26:51;;;;;;;15.05;7.05;;;20.10;99.90;;;;;;5028611;28;20191;-68
2023/10/09 13:29:24;;;;;;;14.52;9.50;;;20.10;99.90;;;;;;5022702;28;20522;-68
2023/10/09 13:31:58;;;;;;;23.65;10.43;;;19.90;99.90;;;;;;5028666;28;20253;-65
2023/10/09 13:34:28;;;;;;;16.15;9.55;;;19.80;99.90;;;;;;5030536;28;20401;-67
2023/10/09 13:36:58;;;;;;;19.08;10.55;;;19.80;99.90;;;;;;5029394;28;20615;-67
2023/10/09 13:39:26;;;;;;;16.30;9.63;;;19.80;99.90;;;;;;5032595;28;20227;-67
2023/10/09 13:41:58;;;;;;;18.20;9.88;;;19.80;99.90;;;;;;5029424;28;20219;-66
2023/10/09 13:44:30;;;;;;;13.98;7.50;;;19.80;99.90;;;;;;5028377;28;20275;-64
2023/10/09 13:47:04;;;;;;;16.40;7.25;;;19.70;99.90;;;;;;5018138;28;20195;-64
2023/10/09 13:49:32;;;;;;;13.15;7.10;;;19.70;99.90;;;;;;5027176;28;20233;-67
2023/10/09 13:52:01;;;;;;;12.45;7.40;;;19.60;99.90;;;;;;5029178;28;20680;-67
2023/10/09 13:57:03;;;;;;;13.05;6.53;;;19.70;99.90;;;;;;5027535;28;20196;-66
2023/10/09 13:59:35;;;;;;;10.63;5.88;;;19.60;99.90;;;;;;5026863;28;20216;-68
2023/10/09 14:02:09;;;;;;;9.82;6.85;;;19.60;99.90;;;;;;5027084;28;20267;-68
2023/10/09 14:04:37;;;;;;;15.07;6.68;;;19.50;99.90;;;;;;5028672;28;20192;-72
2023/10/09 14:07:08;;;;;;;13.63;6.78;;;19.50;99.90;;;;;;5028483;28;20951;-67
2023/10/09 14:09:39;;;;;;;11.80;6.38;;;19.60;99.90;;;;;;5028249;28;20204;-64
2023/10/09 14:12:08;;;;;;;14.98;7.85;;;19.60;99.90;;;;;;5014116;28;20563;-67
2023/10/09 14:14:49;;;;;;;18.50;9.10;;;19.70;99.90;;;;;;5028046;28;20205;-68
2023/10/09 14:17:25;;;;;;;12.70;7.22;;;19.70;99.90;;;;;;5026850;28;21228;-67
2023/10/09 14:19:54;;;;;;;14.70;8.60;;;19.80;99.90;;;;;;5028708;28;20204;-79
2023/10/09 14:22:27;;;;;;;17.35;8.65;;;19.80;99.90;;;;;;5027384;28;20669;-67
2023/10/09 14:24:59;;;;;;;20.60;10.60;;;19.70;99.90;;;;;;5027999;28;20200;-68
2023/10/09 14:27:29;;;;;;;17.08;8.73;;;19.70;99.90;;;;;;5028417;28;20203;-67
2023/10/09 14:30:00;;;;;;;15.02;7.82;;;19.70;99.90;;;;;;5033148;28;20207;-69
2023/10/09 14:32:28;;;;;;;16.88;9.00;;;19.60;99.90;;;;;;5037478;28;20246;-64
2023/10/09 14:35:00;;;;;;;15.93;8.20;;;19.60;99.90;;;;;;5031406;28;20421;-67
2023/10/09 14:37:28;;;;;;;14.18;7.82;;;19.60;99.90;;;;;;5031333;28;20242;-69
2023/10/09 14:39:58;;;;;;;10.80;7.03;;;19.60;99.90;;;;;;5029718;28;20297;-64
2023/10/09 14:42:27;;;;;;;16.83;8.55;;;19.50;99.90;;;;;;5035855;28;20187;-67
2023/10/09 14:44:55;;;;;;;17.10;8.68;;;19.50;99.90;;;;;;5033790;28;20206;-67
2023/10/09 14:47:22;;;;;;;17.65;6.68;;;19.30;99.90;;;;;;5031663;28;20180;-67
2023/10/09 14:49:50;;;;;;;13.50;8.75;;;19.30;99.90;;;;;;5031227;28;20684;-71
2023/10/09 14:52:18;;;;;;;14.80;7.88;;;19.30;99.90;;;;;;5034418;28;20218;-66
2023/10/09 14:54:46;;;;;;;15.77;7.88;;;19.30;99.90;;;;;;5030799;28;20188;-67
2023/10/09 14:57:14;;;;;;;10.68;6.68;;;19.40;99.90;;;;;;5031281;28;20196;-64
2023/10/09 14:59:45;;;;;;;18.73;7.28;;;19.40;99.90;;;;;;5035855;28;20239;-71
2023/10/09 15:02:13;;;;;;;11.70;7.15;;;19.40;99.90;;;;;;5031159;28;20505;-67
2023/10/09 15:04:40;;;;;;;13.82;6.55;;;19.40;99.90;;;;;;5030655;28;20199;-71
2023/10/09 15:07:07;;;;;;;17.63;7.43;;;19.40;99.90;;;;;;5033172;28;20712;-68
2023/10/09 15:09:36;;;;;;;12.23;7.00;;;19.30;99.90;;;;;;5030342;28;20192;-67
2023/10/09 15:12:07;;;;;;;17.98;8.90;;;19.30;99.90;;;;;;5030564;28;20192;-70
2023/10/09 15:14:34;;;;;;;14.68;8.90;;;19.30;99.90;;;;;;5028627;28;20336;-68
2023/10/09 15:17:02;;;;;;;19.60;8.98;;;19.30;99.90;;;;;;5030955;28;20560;-64
2023/10/09 15:19:30;;;;;;;16.67;8.35;;;19.30;99.90;;;;;;5030036;28;20587;-65
2023/10/09 15:21:58;;;;;;;16.52;8.20;;;19.20;99.90;;;;;;5031685;28;20274;-67
2023/10/09 15:24:27;;;;;;;24.85;10.75;;;19.20;99.90;;;;;;5029398;28;20618;-66
2023/10/09 15:26:58;;;;;;;30.55;12.02;;;19.20;99.90;;;;;;5031301;28;20672;-65
2023/10/09 15:29:31;;;;;;;37.28;14.32;;;19.20;99.90;;;;;;5034142;28;20287;-68
2023/10/09 15:32:14;;;;;;;31.50;12.40;;;19.20;99.90;;;;;;5031707;28;20207;-67
2023/10/09 15:34:41;;;;;;;34.45;16.05;;;19.20;99.90;;;;;;5030002;28;20629;-66
2023/10/09 15:37:08;;;;;;;38.40;17.15;;;19.20;99.90;;;;;;5030825;28;20664;-68
2023/10/09 15:39:36;;;;;;;24.48;10.93;;;19.20;99.90;;;;;;5031061;28;20602;-68